Time;durP1;ratioP1;P1;durP2;ratioP2;P2;SDS_P1;SDS_P2;PMS_P1;PMS_P2;Temp;Humidity;BMP_temperature;BMP_pressure;BME280_temperature;BME280_humidity;BME280_pressure;Samples;Min_cycle;Max_cycle;Signal;HPM_P1;HPM_P2
2023/07/16 00:00:26;;;;;;;2.92;1.58;;;33.90;84.00;;;;;;5092671;28;20199;-83
2023/07/16 00:02:57;;;;;;;1.70;1.13;;;33.80;81.10;;;;;;5091798;28;20286;-82
2023/07/16 00:05:28;;;;;;;1.42;1.10;;;33.90;81.10;;;;;;5092840;28;20195;-83
2023/07/16 00:08:01;;;;;;;2.67;1.50;;;33.90;82.70;;;;;;5088784;28;20648;-82
2023/07/16 00:10:31;;;;;;;1.83;1.30;;;34.00;80.80;;;;;;5090637;28;20199;-82
2023/07/16 00:13:02;;;;;;;2.47;1.30;;;33.90;76.70;;;;;;5089535;28;20222;-82
2023/07/16 00:15:33;;;;;;;1.15;1.05;;;33.80;76.80;;;;;;5091776;28;20239;-83
2023/07/16 00:18:05;;;;;;;1.40;1.30;;;33.70;77.60;;;;;;5090511;28;20285;-81
2023/07/16 00:20:36;;;;;;;1.23;1.13;;;33.50;78.80;;;;;;5092170;28;20195;-82
2023/07/16 00:23:09;;;;;;;2.45;1.60;;;33.40;79.80;;;;;;5091200;28;20285;-82
2023/07/16 00:25:39;;;;;;;2.13;1.48;;;33.30;80.70;;;;;;5088963;28;20199;-82
2023/07/16 00:28:11;;;;;;;2.22;1.50;;;33.30;78.20;;;;;;5091283;28;20636;-82
2023/07/16 00:30:42;;;;;;;3.47;1.48;;;33.20;82.30;;;;;;5092256;28;20195;-82
2023/07/16 00:33:13;;;;;;;1.30;1.15;;;33.30;81.00;;;;;;5091136;28;20574;-82
2023/07/16 00:35:50;;;;;;;1.33;1.23;;;33.30;79.70;;;;;;5091985;28;20223;-82
2023/07/16 00:38:22;;;;;;;3.35;1.80;;;33.00;81.90;;;;;;5091316;28;20201;-81
2023/07/16 00:40:53;;;;;;;3.13;1.70;;;32.90;82.60;;;;;;5090796;28;20567;-82
2023/07/16 00:43:24;;;;;;;2.38;1.40;;;32.70;80.80;;;;;;5091936;28;20203;-83
2023/07/16 00:45:55;;;;;;;2.00;1.15;;;32.80;82.00;;;;;;5091779;28;20595;-82
2023/07/16 00:48:27;;;;;;;1.92;1.20;;;32.60;81.30;;;;;;5092024;28;20199;-81
2023/07/16 00:50:58;;;;;;;1.63;1.30;;;32.70;82.60;;;;;;5086689;28;20669;-81
2023/07/16 00:53:31;;;;;;;3.50;1.55;;;32.70;81.70;;;;;;5091633;28;20233;-82
2023/07/16 00:56:03;;;;;;;3.88;1.58;;;32.70;83.10;;;;;;5091380;28;20226;-80
2023/07/16 00:58:34;;;;;;;2.75;1.15;;;32.60;82.50;;;;;;5090530;28;20263;-82
2023/07/16 01:01:05;;;;;;;3.80;1.67;;;32.70;83.30;;;;;;5090553;28;20202;-81
2023/07/16 01:03:36;;;;;;;2.42;1.50;;;33.00;82.50;;;;;;5089389;28;20199;-82
2023/07/16 01:06:15;;;;;;;2.20;1.48;;;33.50;84.60;;;;;;5091689;28;20209;-81
2023/07/16 01:08:56;;;;;;;1.67;1.50;;;33.80;82.90;;;;;;5089126;28;20195;-82
2023/07/16 01:11:29;;;;;;;1.65;1.40;;;33.90;83.00;;;;;;5090487;28;20226;-82
2023/07/16 01:14:01;;;;;;;2.25;1.80;;;33.80;81.40;;;;;;5091470;28;20309;-82
2023/07/16 01:16:32;;;;;;;2.75;1.63;;;33.80;81.80;;;;;;5073279;28;20199;-83
2023/07/16 01:19:03;;;;;;;2.20;1.70;;;33.90;81.60;;;;;;5091285;28;20282;-82
2023/07/16 01:21:41;;;;;;;1.73;1.52;;;34.00;81.50;;;;;;5087366;28;20560;-82
2023/07/16 01:24:42;;;;;;;2.33;1.48;;;33.70;81.70;;;;;;5086790;28;20636;-83
2023/07/16 01:27:43;;;;;;;1.50;1.40;;;33.70;80.40;;;;;;5082536;28;20290;-83
2023/07/16 01:30:20;;;;;;;3.08;1.50;;;33.90;81.80;;;;;;5088661;28;20862;-82
2023/07/16 01:32:51;;;;;;;2.78;1.70;;;33.70;81.40;;;;;;5091810;28;20230;-82
2023/07/16 01:35:23;;;;;;;4.72;1.60;;;33.50;81.50;;;;;;5092312;28;20203;-82
2023/07/16 01:37:54;;;;;;;1.65;1.50;;;33.30;81.50;;;;;;5091328;28;20227;-84
2023/07/16 01:40:25;;;;;;;1.65;1.55;;;32.90;80.00;;;;;;5091831;28;20213;-82
2023/07/16 01:42:56;;;;;;;2.40;1.80;;;33.10;79.80;;;;;;5090637;28;20191;-83
2023/07/16 01:45:28;;;;;;;3.03;1.77;;;33.60;80.30;;;;;;5086538;28;20293;-83
2023/07/16 01:48:10;;;;;;;1.48;1.38;;;34.00;78.30;;;;;;5088299;28;20209;-82
2023/07/16 01:50:41;;;;;;;1.58;1.48;;;33.90;78.50;;;;;;5087226;28;20203;-82
2023/07/16 01:53:12;;;;;;;2.35;1.50;;;33.20;79.40;;;;;;5086078;28;20721;-82
2023/07/16 01:55:43;;;;;;;2.92;1.60;;;32.50;80.80;;;;;;5087035;28;20238;-82
2023/07/16 01:58:14;;;;;;;1.98;1.55;;;31.90;82.40;;;;;;5090847;28;20201;-82
2023/07/16 02:00:48;;;;;;;1.80;1.70;;;31.10;81.90;;;;;;5088378;28;20298;-83
2023/07/16 02:03:18;;;;;;;1.50;1.40;;;30.50;83.50;;;;;;5091831;28;20262;-83
2023/07/16 02:05:50;;;;;;;1.50;1.40;;;30.30;83.80;;;;;;5091934;28;20238;-82
2023/07/16 02:08:21;;;;;;;2.47;1.65;;;30.20;85.10;;;;;;5091810;28;20237;-81
2023/07/16 02:10:52;;;;;;;2.05;1.70;;;30.00;85.20;;;;;;5089885;28;20195;-84
2023/07/16 02:13:22;;;;;;;3.20;1.88;;;29.70;86.50;;;;;;5086780;28;20588;-82
2023/07/16 02:15:55;;;;;;;3.03;1.77;;;29.30;84.50;;;;;;5090734;28;20195;-82
2023/07/16 02:18:26;;;;;;;2.47;2.05;;;28.90;83.20;;;;;;5090636;28;20657;-82
2023/07/16 02:20:57;;;;;;;2.58;2.10;;;28.40;81.90;;;;;;5089511;28;20683;-82
2023/07/16 02:23:27;;;;;;;2.97;2.40;;;28.00;82.20;;;;;;5090545;28;20206;-83
2023/07/16 02:25:58;;;;;;;2.63;2.33;;;27.70;82.40;;;;;;5091084;28;20195;-81
2023/07/16 02:28:29;;;;;;;2.10;1.90;;;27.50;82.40;;;;;;5090390;28;20191;-81
2023/07/16 02:31:01;;;;;;;2.87;2.03;;;27.30;82.70;;;;;;5089422;28;20192;-82
2023/07/16 02:33:32;;;;;;;2.60;2.27;;;27.20;83.90;;;;;;5090385;28;20641;-83
2023/07/16 02:36:03;;;;;;;4.03;2.40;;;27.00;84.60;;;;;;5090722;28;20202;-82
2023/07/16 02:38:34;;;;;;;2.90;2.07;;;26.70;84.90;;;;;;5090860;28;20202;-83
2023/07/16 02:41:05;;;;;;;3.00;2.27;;;26.50;87.20;;;;;;5090670;28;20210;-83
2023/07/16 02:43:36;;;;;;;3.27;2.13;;;26.40;87.50;;;;;;5091851;28;20195;-83
2023/07/16 02:46:08;;;;;;;2.27;2.10;;;26.30;87.90;;;;;;5091953;28;20282;-82
2023/07/16 02:48:39;;;;;;;2.73;2.30;;;26.20;88.40;;;;;;5087287;28;20194;-83
2023/07/16 02:51:10;;;;;;;2.67;2.30;;;26.10;89.20;;;;;;5086363;28;20636;-82
2023/07/16 02:53:41;;;;;;;2.07;1.87;;;25.90;90.00;;;;;;5092163;28;20241;-82
2023/07/16 02:56:11;;;;;;;3.10;2.23;;;25.90;89.90;;;;;;5092125;28;20282;-81
2023/07/16 02:58:43;;;;;;;4.07;2.20;;;25.70;90.40;;;;;;5091401;28;20207;-81
2023/07/16 03:01:15;;;;;;;3.10;2.00;;;25.60;90.80;;;;;;5091106;28;20256;-83
2023/07/16 03:03:46;;;;;;;3.37;2.23;;;25.50;90.40;;;;;;5094501;28;20672;-82
2023/07/16 03:06:17;;;;;;;3.13;1.93;;;25.30;90.90;;;;;;5091809;28;20249;-82
2023/07/16 03:08:51;;;;;;;2.07;1.50;;;25.20;91.20;;;;;;5089786;28;20195;-81
2023/07/16 03:11:22;;;;;;;3.60;1.87;;;25.00;90.90;;;;;;5093538;28;20207;-81
2023/07/16 03:13:53;;;;;;;1.90;1.57;;;25.00;91.20;;;;;;5093774;28;20553;-82
2023/07/16 03:16:25;;;;;;;2.70;1.90;;;24.80;91.40;;;;;;5096412;28;20234;-81
2023/07/16 03:18:56;;;;;;;1.93;1.67;;;24.80;91.60;;;;;;5096833;28;20207;-83
2023/07/16 03:21:30;;;;;;;2.90;1.80;;;24.70;91.80;;;;;;5095492;28;20205;-82
2023/07/16 03:24:01;;;;;;;2.47;1.80;;;24.70;91.80;;;;;;5095323;28;20218;-82
2023/07/16 03:26:31;;;;;;;3.23;1.60;;;24.70;91.80;;;;;;5096627;28;20266;-82
2023/07/16 03:29:02;;;;;;;2.80;2.03;;;24.70;92.20;;;;;;5090682;28;20203;-82
2023/07/16 03:31:35;;;;;;;2.60;1.97;;;24.60;92.50;;;;;;5095169;28;20699;-81
2023/07/16 03:34:06;;;;;;;2.40;1.63;;;24.50;92.30;;;;;;5093499;28;20222;-82
2023/07/16 03:36:37;;;;;;;1.90;1.77;;;24.40;92.70;;;;;;5093259;28;20252;-81
2023/07/16 03:39:07;;;;;;;1.90;1.80;;;24.30;93.10;;;;;;5092828;28;20199;-82
2023/07/16 03:41:38;;;;;;;2.47;1.63;;;24.20;93.80;;;;;;5093942;28;20285;-82
2023/07/16 03:44:09;;;;;;;3.60;1.60;;;24.10;93.40;;;;;;5101250;28;20207;-82
2023/07/16 03:46:41;;;;;;;4.23;2.00;;;23.90;93.80;;;;;;5092651;28;20202;-82
2023/07/16 03:49:12;;;;;;;3.93;1.60;;;23.70;94.30;;;;;;5094040;28;20207;-81
2023/07/16 03:51:43;;;;;;;2.00;1.80;;;23.50;94.40;;;;;;5096339;28;20201;-82
2023/07/16 03:54:14;;;;;;;2.67;1.87;;;23.30;94.40;;;;;;5093480;28;20246;-82
2023/07/16 03:56:45;;;;;;;2.00;1.60;;;23.20;94.70;;;;;;5093225;28;20199;-82
2023/07/16 03:59:16;;;;;;;3.43;1.93;;;23.20;94.70;;;;;;5090475;28;20187;-81
2023/07/16 04:01:48;;;;;;;1.60;1.50;;;23.10;94.80;;;;;;5092419;28;20206;-81
2023/07/16 04:04:19;;;;;;;2.57;1.90;;;23.00;94.90;;;;;;5092673;28;20203;-81
2023/07/16 04:06:50;;;;;;;3.77;2.13;;;22.90;95.10;;;;;;5088979;28;20227;-81
2023/07/16 04:09:21;;;;;;;3.07;1.97;;;22.70;94.90;;;;;;5092685;28;20211;-83
2023/07/16 04:11:52;;;;;;;3.37;1.77;;;22.70;95.30;;;;;;5092515;28;20195;-81
2023/07/16 04:14:23;;;;;;;3.93;2.00;;;22.60;95.20;;;;;;5092609;28;20229;-81
2023/07/16 04:16:55;;;;;;;1.70;1.50;;;22.50;95.80;;;;;;5093021;28;20709;-81
2023/07/16 04:19:26;;;;;;;2.30;2.10;;;22.30;96.30;;;;;;5092855;28;20218;-82
2023/07/16 04:21:57;;;;;;;2.90;1.83;;;22.20;96.00;;;;;;5092319;28;20614;-82
2023/07/16 04:24:28;;;;;;;4.37;2.13;;;22.20;96.10;;;;;;5093111;28;20245;-82
2023/07/16 04:27:00;;;;;;;2.20;1.90;;;22.10;96.20;;;;;;5093333;28;20708;-83
2023/07/16 04:29:31;;;;;;;2.33;2.00;;;22.10;96.70;;;;;;5092928;28;20725;-81
2023/07/16 04:32:03;;;;;;;2.53;2.00;;;22.00;97.20;;;;;;5091861;28;20709;-82
2023/07/16 04:34:34;;;;;;;5.37;2.60;;;22.00;97.30;;;;;;5092369;28;20306;-82
2023/07/16 04:37:05;;;;;;;3.83;2.30;;;21.90;97.70;;;;;;5093036;28;20270;-82
2023/07/16 04:39:36;;;;;;;2.60;2.30;;;21.90;97.90;;;;;;5092033;28;20220;-82
2023/07/16 04:42:07;;;;;;;2.80;1.90;;;21.80;98.30;;;;;;5091703;28;20282;-83
2023/07/16 04:44:38;;;;;;;3.70;2.00;;;21.70;98.50;;;;;;5092718;28;20199;-82
2023/07/16 04:47:11;;;;;;;3.83;2.37;;;21.60;99.10;;;;;;5092421;28;20236;-83
2023/07/16 04:49:42;;;;;;;2.63;2.20;;;21.50;99.50;;;;;;5092455;28;20631;-82
2023/07/16 04:52:12;;;;;;;2.30;2.10;;;21.50;99.80;;;;;;5091773;28;20226;-82
2023/07/16 04:54:43;;;;;;;3.37;2.03;;;21.50;99.90;;;;;;5092555;28;20236;-82
2023/07/16 04:57:14;;;;;;;3.20;2.40;;;21.50;99.90;;;;;;5092581;28;20228;-82
2023/07/16 04:59:45;;;;;;;2.73;2.10;;;21.40;99.90;;;;;;5088912;28;20294;-83
2023/07/16 05:02:17;;;;;;;2.77;2.50;;;21.40;99.90;;;;;;5091511;28;20661;-83
2023/07/16 05:04:48;;;;;;;3.07;2.30;;;21.30;99.90;;;;;;5092277;28;20289;-81
2023/07/16 05:07:19;;;;;;;3.10;2.40;;;21.20;99.90;;;;;;5092844;28;20211;-82
2023/07/16 05:09:50;;;;;;;7.40;3.00;;;21.20;99.90;;;;;;5092417;28;20209;-82
2023/07/16 05:12:21;;;;;;;7.97;3.30;;;21.20;99.90;;;;;;5090709;28;20290;-84
2023/07/16 05:14:53;;;;;;;4.20;2.47;;;21.10;99.90;;;;;;5091437;28;20219;-82
2023/07/16 05:17:25;;;;;;;4.77;2.53;;;21.00;99.90;;;;;;5088148;28;20231;-81
2023/07/16 05:19:56;;;;;;;4.13;2.23;;;20.90;99.90;;;;;;5088252;28;20199;-81
2023/07/16 05:22:27;;;;;;;4.30;2.40;;;20.80;99.90;;;;;;5090436;28;20210;-81
2023/07/16 05:24:58;;;;;;;3.07;2.30;;;20.60;99.90;;;;;;5091159;28;20242;-82
2023/07/16 05:27:29;;;;;;;4.70;2.10;;;20.60;99.90;;;;;;5091409;28;20675;-84
2023/07/16 05:30:00;;;;;;;2.77;2.40;;;20.50;99.90;;;;;;5088560;28;20302;-81
2023/07/16 05:32:32;;;;;;;2.30;2.10;;;20.40;99.90;;;;;;5089607;28;20198;-82
2023/07/16 05:35:03;;;;;;;2.97;2.40;;;20.40;99.90;;;;;;5089740;28;20622;-82
2023/07/16 05:37:35;;;;;;;2.40;2.20;;;20.30;99.90;;;;;;5087684;28;20634;-81
2023/07/16 05:40:08;;;;;;;2.70;1.97;;;20.30;99.90;;;;;;5089892;28;20235;-81
2023/07/16 05:42:39;;;;;;;2.60;2.17;;;20.20;99.90;;;;;;5087638;28;20199;-82
2023/07/16 05:45:11;;;;;;;3.10;2.40;;;20.20;99.90;;;;;;5086049;28;20217;-80
2023/07/16 05:47:43;;;;;;;3.17;2.60;;;20.10;99.90;;;;;;5087256;28;20264;-81
2023/07/16 05:50:14;;;;;;;2.50;2.30;;;20.00;99.90;;;;;;5088830;28;20198;-82
2023/07/16 05:52:47;;;;;;;2.57;2.37;;;20.00;99.90;;;;;;5086646;28;20202;-81
2023/07/16 05:55:19;;;;;;;4.00;2.13;;;19.90;99.90;;;;;;5087217;28;20736;-81
2023/07/16 05:57:49;;;;;;;3.10;2.30;;;19.80;99.90;;;;;;5089889;28;20199;-82
2023/07/16 06:00:20;;;;;;;3.13;2.50;;;19.80;99.90;;;;;;5094320;28;20203;-82
2023/07/16 06:02:53;;;;;;;4.00;2.30;;;19.80;99.90;;;;;;5085719;28;20235;-82
2023/07/16 06:05:24;;;;;;;2.77;2.13;;;19.70;99.90;;;;;;5090457;28;20622;-82
2023/07/16 06:07:55;;;;;;;2.53;2.10;;;19.70;99.90;;;;;;5091281;28;20201;-81
2023/07/16 06:10:26;;;;;;;3.57;2.00;;;19.70;99.90;;;;;;5091940;28;20195;-82
2023/07/16 06:12:57;;;;;;;3.13;2.20;;;19.60;99.90;;;;;;5088130;28;20191;-81
2023/07/16 06:15:28;;;;;;;2.37;2.17;;;19.60;99.90;;;;;;5090743;28;20314;-81
2023/07/16 06:18:00;;;;;;;2.30;2.00;;;19.50;99.90;;;;;;5089207;28;20207;-81
2023/07/16 06:20:31;;;;;;;4.67;2.20;;;19.40;99.90;;;;;;5091575;28;20209;-82
2023/07/16 06:23:02;;;;;;;3.63;1.90;;;19.40;99.90;;;;;;5089309;28;20207;-81
2023/07/16 06:25:33;;;;;;;3.83;2.10;;;19.30;99.90;;;;;;5090283;28;20203;-82
2023/07/16 06:28:04;;;;;;;3.43;2.17;;;19.20;99.90;;;;;;5090865;28;20203;-83
2023/07/16 06:30:35;;;;;;;4.70;2.33;;;19.20;99.90;;;;;;5090802;28;20203;-81
2023/07/16 06:33:07;;;;;;;2.50;2.27;;;19.20;99.90;;;;;;5088848;28;20210;-82
2023/07/16 06:35:38;;;;;;;2.83;2.37;;;19.20;99.90;;;;;;5087919;28;20261;-81
2023/07/16 06:38:09;;;;;;;3.40;2.60;;;19.20;99.90;;;;;;5091344;28;20294;-81
2023/07/16 06:40:40;;;;;;;4.37;2.77;;;19.20;99.90;;;;;;5093163;28;20569;-82
2023/07/16 06:43:11;;;;;;;4.57;2.30;;;19.20;99.90;;;;;;5091835;28;20206;-80
2023/07/16 06:45:42;;;;;;;2.60;1.90;;;19.20;99.90;;;;;;5092747;28;20576;-80
2023/07/16 06:48:14;;;;;;;3.17;2.40;;;19.20;99.90;;;;;;5094495;28;20274;-81
2023/07/16 06:50:45;;;;;;;2.77;2.13;;;19.10;99.90;;;;;;5094413;28;20214;-81
2023/07/16 06:53:16;;;;;;;2.37;2.10;;;19.10;99.90;;;;;;5086299;28;20259;-82
2023/07/16 06:55:49;;;;;;;3.40;2.37;;;19.20;99.90;;;;;;5094808;28;20223;-82
2023/07/16 06:58:20;;;;;;;3.60;2.47;;;19.10;99.90;;;;;;5094609;28;20289;-82
2023/07/16 07:00:51;;;;;;;3.50;2.07;;;19.20;99.90;;;;;;5093173;28;20275;-83
2023/07/16 07:03:23;;;;;;;4.47;2.13;;;19.00;99.90;;;;;;5093837;28;20203;-80
2023/07/16 07:05:54;;;;;;;2.87;2.20;;;19.00;99.90;;;;;;5090263;28;20203;-81
2023/07/16 07:08:25;;;;;;;4.10;2.47;;;19.00;99.90;;;;;;5092247;28;20205;-81
2023/07/16 07:10:56;;;;;;;3.50;2.47;;;18.90;99.90;;;;;;5090865;28;20652;-81
2023/07/16 07:13:27;;;;;;;4.30;2.17;;;18.90;99.90;;;;;;5090362;28;20204;-81
2023/07/16 07:15:57;;;;;;;2.47;2.27;;;18.90;99.90;;;;;;5092500;28;20560;-81
2023/07/16 07:18:31;;;;;;;3.40;2.10;;;18.80;99.90;;;;;;5093816;28;20252;-82
2023/07/16 07:21:01;;;;;;;2.10;1.90;;;18.80;99.90;;;;;;5092855;28;20633;-82
2023/07/16 07:23:32;;;;;;;3.83;2.23;;;18.80;99.90;;;;;;5093815;28;20233;-82
2023/07/16 07:26:03;;;;;;;3.00;2.03;;;18.80;99.90;;;;;;5094016;28;20199;-80
2023/07/16 07:28:34;;;;;;;2.27;2.07;;;18.80;99.90;;;;;;5095164;28;20203;-82
2023/07/16 07:31:05;;;;;;;3.27;2.10;;;18.80;99.90;;;;;;5091969;28;20211;-81
2023/07/16 07:33:37;;;;;;;2.80;2.27;;;18.80;99.90;;;;;;5093752;28;20210;-81
2023/07/16 07:36:08;;;;;;;3.23;2.37;;;18.80;99.90;;;;;;5092452;28;20234;-82
2023/07/16 07:38:39;;;;;;;2.57;1.90;;;18.80;99.90;;;;;;5092254;28;20725;-82
2023/07/16 07:41:10;;;;;;;2.30;2.10;;;18.80;99.90;;;;;;5090940;28;20252;-82
2023/07/16 07:43:41;;;;;;;3.53;2.20;;;18.70;99.90;;;;;;5091246;28;20207;-82
2023/07/16 07:46:12;;;;;;;4.20;2.00;;;18.60;99.90;;;;;;5091813;28;20195;-82
2023/07/16 07:48:47;;;;;;;4.57;2.30;;;18.60;99.90;;;;;;5090739;28;20210;-82
2023/07/16 07:51:18;;;;;;;4.10;2.07;;;18.70;99.90;;;;;;5090138;28;20576;-81
2023/07/16 07:53:50;;;;;;;3.03;2.20;;;18.60;99.90;;;;;;5091828;28;20572;-82
2023/07/16 07:56:22;;;;;;;3.27;2.53;;;18.60;99.90;;;;;;5091054;28;20321;-80
2023/07/16 07:58:53;;;;;;;5.13;2.50;;;18.50;99.90;;;;;;5091009;28;20198;-81
2023/07/16 08:01:24;;;;;;;2.23;2.03;;;18.50;99.90;;;;;;5090409;28;20206;-81
2023/07/16 08:03:57;;;;;;;3.33;2.20;;;18.40;99.90;;;;;;5092796;28;20285;-82
2023/07/16 08:06:28;;;;;;;4.97;2.30;;;18.40;99.90;;;;;;5089699;28;20254;-81
2023/07/16 08:08:59;;;;;;;3.73;2.20;;;18.30;99.90;;;;;;5092897;28;20194;-81
2023/07/16 08:11:30;;;;;;;4.03;2.30;;;18.30;99.90;;;;;;5092279;28;20209;-82
2023/07/16 08:14:01;;;;;;;4.53;2.00;;;18.30;99.90;;;;;;5092787;28;20888;-80
2023/07/16 08:16:31;;;;;;;3.27;2.53;;;18.10;99.90;;;;;;5094556;28;20227;-82
2023/07/16 08:19:04;;;;;;;2.70;2.23;;;18.10;99.90;;;;;;5095987;28;20241;-82
2023/07/16 08:21:35;;;;;;;2.87;1.97;;;18.00;99.90;;;;;;5091537;28;20286;-82
2023/07/16 08:24:07;;;;;;;2.73;2.17;;;17.90;99.90;;;;;;5092949;28;20203;-82
2023/07/16 08:26:38;;;;;;;5.33;2.17;;;17.90;99.90;;;;;;5090464;28;20191;-81
2023/07/16 08:29:09;;;;;;;4.03;2.30;;;17.90;99.90;;;;;;5092913;28;20527;-81
2023/07/16 08:31:40;;;;;;;2.27;1.90;;;18.00;99.90;;;;;;5083195;28;20278;-81
2023/07/16 08:34:12;;;;;;;3.87;2.40;;;17.90;99.90;;;;;;5092022;28;20282;-82
2023/07/16 08:36:44;;;;;;;4.13;2.30;;;17.90;99.90;;;;;;5091646;28;20231;-81
2023/07/16 08:39:14;;;;;;;3.63;2.17;;;17.90;99.90;;;;;;5092136;28;20209;-82
2023/07/16 08:41:48;;;;;;;4.63;2.20;;;17.80;99.90;;;;;;5090550;28;20256;-82
2023/07/16 08:44:19;;;;;;;4.43;2.07;;;17.80;99.90;;;;;;5092722;28;20229;-81
2023/07/16 08:46:50;;;;;;;3.67;2.07;;;17.90;99.90;;;;;;5092665;28;20241;-83
2023/07/16 08:49:24;;;;;;;2.30;2.10;;;17.80;99.90;;;;;;5088417;28;20671;-82
2023/07/16 08:51:57;;;;;;;5.50;2.03;;;17.70;99.90;;;;;;5087312;28;20195;-80
2023/07/16 08:54:28;;;;;;;5.60;2.50;;;17.70;99.90;;;;;;5087890;28;20273;-82
2023/07/16 08:57:00;;;;;;;4.73;2.30;;;17.60;99.90;;;;;;5091642;28;20223;-80
2023/07/16 08:59:31;;;;;;;3.63;2.23;;;17.50;99.90;;;;;;5091540;28;20636;-82
2023/07/16 09:02:04;;;;;;;3.90;2.20;;;17.50;99.90;;;;;;5091018;28;20300;-81
2023/07/16 09:04:36;;;;;;;3.90;2.43;;;17.40;99.90;;;;;;5091656;28;20229;-82
2023/07/16 09:07:07;;;;;;;2.90;2.10;;;17.30;99.90;;;;;;5091349;28;20241;-81
2023/07/16 09:09:38;;;;;;;4.37;2.13;;;17.30;99.90;;;;;;5091494;28;20210;-82
2023/07/16 09:12:13;;;;;;;4.87;2.30;;;17.30;99.90;;;;;;5087159;28;20195;-82
2023/07/16 09:14:46;;;;;;;3.83;2.10;;;17.20;99.90;;;;;;5087627;28;20203;-81
2023/07/16 09:17:23;;;;;;;3.30;2.43;;;17.10;99.90;;;;;;5087474;28;20233;-82
2023/07/16 09:19:56;;;;;;;3.47;1.97;;;17.10;99.90;;;;;;5087672;28;20214;-82
2023/07/16 09:22:27;;;;;;;4.40;2.37;;;17.00;99.90;;;;;;5086028;28;20302;-81
2023/07/16 09:24:58;;;;;;;3.40;1.90;;;17.00;99.90;;;;;;5091137;28;20557;-82
2023/07/16 09:27:30;;;;;;;2.67;2.07;;;17.00;99.90;;;;;;5091318;28;20652;-81
2023/07/16 09:30:02;;;;;;;4.60;2.60;;;16.90;99.90;;;;;;5091453;28;20214;-82
2023/07/16 09:32:37;;;;;;;4.87;2.07;;;16.90;99.90;;;;;;5090398;28;20197;-81
2023/07/16 09:35:12;;;;;;;3.70;2.30;;;16.80;99.90;;;;;;5091000;28;20660;-82
2023/07/16 09:37:43;;;;;;;2.90;2.07;;;16.70;99.90;;;;;;5090984;28;20230;-82
2023/07/16 09:40:14;;;;;;;2.87;2.00;;;16.70;99.90;;;;;;5090993;28;20199;-81
2023/07/16 09:42:46;;;;;;;2.40;1.97;;;16.60;99.90;;;;;;5090110;28;20245;-81
2023/07/16 09:45:20;;;;;;;3.60;2.30;;;16.60;99.90;;;;;;5084629;28;20287;-81
2023/07/16 09:47:51;;;;;;;3.63;2.00;;;16.60;99.90;;;;;;5087004;28;20746;-81
2023/07/16 09:50:26;;;;;;;4.37;2.00;;;16.70;99.90;;;;;;5090577;28;20563;-81
2023/07/16 09:52:58;;;;;;;2.83;2.07;;;16.60;99.90;;;;;;5089862;28;20198;-81
2023/07/16 09:55:32;;;;;;;3.17;2.20;;;16.60;99.90;;;;;;5090982;28;20202;-82
2023/07/16 09:58:07;;;;;;;2.50;1.93;;;16.60;99.90;;;;;;5090960;28;20310;-81
2023/07/16 10:00:39;;;;;;;2.63;1.90;;;16.60;99.90;;;;;;5090647;28;20297;-82
2023/07/16 10:03:10;;;;;;;2.10;1.90;;;16.60;99.90;;;;;;5089066;28;20658;-82
2023/07/16 10:05:43;;;;;;;3.60;1.80;;;16.60;99.90;;;;;;5090512;28;20191;-83
2023/07/16 10:08:21;;;;;;;7.00;1.83;;;16.60;99.90;;;;;;5091169;28;20302;-82
2023/07/16 10:10:56;;;;;;;2.87;2.07;;;16.50;99.90;;;;;;5090362;28;20199;-83
2023/07/16 10:13:28;;;;;;;2.27;1.80;;;16.50;99.90;;;;;;5092575;28;20622;-82
2023/07/16 10:16:00;;;;;;;2.40;1.77;;;16.50;99.90;;;;;;5094570;28;20754;-82
2023/07/16 10:18:33;;;;;;;3.90;2.10;;;16.50;99.90;;;;;;5087498;28;20249;-82
2023/07/16 10:21:08;;;;;;;3.40;1.93;;;16.50;99.90;;;;;;5090399;28;20311;-83
2023/07/16 10:23:43;;;;;;;2.03;1.87;;;16.40;99.90;;;;;;5093887;28;20218;-81
2023/07/16 10:26:15;;;;;;;2.67;2.00;;;16.50;99.90;;;;;;5090684;28;20205;-83
2023/07/16 10:28:49;;;;;;;3.40;2.13;;;16.50;99.90;;;;;;5097750;28;20198;-82
2023/07/16 10:31:22;;;;;;;3.53;2.20;;;16.50;99.90;;;;;;5095030;28;20194;-82
2023/07/16 10:34:04;;;;;;;4.80;2.10;;;16.40;99.90;;;;;;5095829;28;20675;-81
2023/07/16 10:36:42;;;;;;;4.27;2.30;;;16.40;99.90;;;;;;5091363;28;20217;-82
2023/07/16 10:39:12;;;;;;;2.97;2.20;;;16.40;99.90;;;;;;5090782;28;20609;-82
2023/07/16 10:41:43;;;;;;;2.73;2.00;;;16.50;99.90;;;;;;5093628;28;20205;-81
2023/07/16 10:44:16;;;;;;;2.60;2.13;;;16.40;99.90;;;;;;5094228;28;20203;-82
2023/07/16 10:46:47;;;;;;;3.87;2.37;;;16.30;99.90;;;;;;5094498;28;20325;-82
2023/07/16 10:49:27;;;;;;;2.30;2.03;;;16.30;99.90;;;;;;5094142;28;20203;-82
2023/07/16 10:52:01;;;;;;;4.13;2.40;;;16.40;99.90;;;;;;5093514;28;20199;-83
2023/07/16 10:54:32;;;;;;;2.37;1.67;;;16.40;99.90;;;;;;5093948;28;20384;-82
2023/07/16 10:57:05;;;;;;;2.70;2.03;;;16.40;99.90;;;;;;5093942;28;20267;-82
2023/07/16 10:59:38;;;;;;;2.77;2.00;;;16.40;99.90;;;;;;5094357;28;20280;-81
2023/07/16 11:02:13;;;;;;;3.20;2.07;;;16.40;99.90;;;;;;5093289;28;20238;-82
2023/07/16 11:04:44;;;;;;;2.57;2.17;;;16.40;99.90;;;;;;5094086;28;20570;-81
2023/07/16 11:07:18;;;;;;;2.90;1.97;;;16.40;99.90;;;;;;5093928;28;21027;-82
2023/07/16 11:09:50;;;;;;;4.80;2.10;;;16.40;99.90;;;;;;5090698;28;20214;-82
2023/07/16 11:12:22;;;;;;;3.60;2.40;;;16.40;99.90;;;;;;5092833;28;20205;-82
2023/07/16 11:14:57;;;;;;;2.53;2.10;;;16.40;99.90;;;;;;5089871;28;20629;-82
2023/07/16 11:17:28;;;;;;;3.47;1.97;;;16.40;99.90;;;;;;5093733;28;20199;-82
2023/07/16 11:20:02;;;;;;;2.30;2.10;;;16.30;99.90;;;;;;5094188;28;20770;-81
2023/07/16 11:22:34;;;;;;;3.13;1.80;;;16.30;99.90;;;;;;5092485;28;20210;-82
2023/07/16 11:25:12;;;;;;;2.43;1.80;;;16.30;99.90;;;;;;5093452;28;20664;-81
2023/07/16 11:27:44;;;;;;;3.13;2.17;;;16.30;99.90;;;;;;5093269;28;20241;-82
2023/07/16 11:30:15;;;;;;;2.67;1.93;;;16.30;99.90;;;;;;5093679;28;20207;-81
2023/07/16 11:32:48;;;;;;;4.17;1.87;;;16.30;99.90;;;;;;5092365;28;20203;-81
2023/07/16 11:35:21;;;;;;;3.07;2.00;;;16.30;99.90;;;;;;5093565;28;20264;-82
2023/07/16 11:37:53;;;;;;;2.50;2.10;;;16.20;99.90;;;;;;5093324;28;20207;-82
2023/07/16 11:40:24;;;;;;;2.53;1.93;;;16.20;99.90;;;;;;5089923;28;20680;-82
2023/07/16 11:42:55;;;;;;;2.03;1.60;;;16.20;99.90;;;;;;5088390;28;20231;-81
2023/07/16 11:45:27;;;;;;;1.97;1.70;;;16.10;99.90;;;;;;5093148;28;20287;-82
2023/07/16 11:47:59;;;;;;;4.43;1.83;;;16.10;99.90;;;;;;5084436;28;20566;-81
2023/07/16 11:50:30;;;;;;;2.73;1.83;;;16.10;99.90;;;;;;5092969;28;20231;-81
2023/07/16 11:53:03;;;;;;;3.13;1.70;;;16.00;99.90;;;;;;5090027;28;20234;-81
2023/07/16 11:55:35;;;;;;;2.73;1.73;;;16.00;99.90;;;;;;5094571;28;20565;-82
2023/07/16 11:58:06;;;;;;;4.33;2.17;;;16.00;99.90;;;;;;5093073;28;20245;-81
2023/07/16 12:00:37;;;;;;;3.23;1.63;;;15.90;99.90;;;;;;5093032;28;20203;-81
2023/07/16 12:03:08;;;;;;;2.07;1.30;;;16.00;99.90;;;;;;5088229;28;20199;-80
2023/07/16 12:05:39;;;;;;;1.50;1.40;;;15.90;99.90;;;;;;5092917;28;20669;-81
2023/07/16 12:08:24;;;;;;;1.97;1.27;;;15.90;99.90;;;;;;5089526;28;20674;-82
2023/07/16 12:10:56;;;;;;;2.67;1.57;;;15.90;99.90;;;;;;5088073;28;20202;-81
2023/07/16 12:13:31;;;;;;;2.43;1.60;;;15.90;99.90;;;;;;5092220;28;20194;-82
2023/07/16 12:16:02;;;;;;;3.57;1.50;;;15.80;99.90;;;;;;5092854;28;20207;-81
2023/07/16 12:18:33;;;;;;;5.73;1.90;;;15.70;99.90;;;;;;5092609;28;20268;-82
2023/07/16 12:21:04;;;;;;;1.50;1.37;;;15.70;99.90;;;;;;5091968;28;20660;-82
2023/07/16 12:23:37;;;;;;;2.20;1.70;;;15.60;99.90;;;;;;5092670;28;20203;-82
2023/07/16 12:26:08;;;;;;;2.53;1.50;;;15.60;99.90;;;;;;5092780;28;20230;-81
2023/07/16 12:28:39;;;;;;;2.93;1.40;;;15.60;99.90;;;;;;5092470;28;20206;-81
2023/07/16 12:31:10;;;;;;;1.60;1.20;;;15.60;99.90;;;;;;5091690;28;20209;-82
2023/07/16 12:33:40;;;;;;;1.47;1.37;;;15.60;99.90;;;;;;5092132;28;20248;-83
2023/07/16 12:36:11;;;;;;;3.80;1.50;;;15.60;99.90;;;;;;5096693;28;20214;-81
2023/07/16 12:38:44;;;;;;;1.93;1.20;;;15.60;99.90;;;;;;5097516;28;20219;-81
2023/07/16 12:41:16;;;;;;;1.40;1.20;;;15.50;99.90;;;;;;5095070;28;20731;-82
2023/07/16 12:43:47;;;;;;;1.73;1.20;;;15.50;99.90;;;;;;5092259;28;20207;-82
2023/07/16 12:46:18;;;;;;;2.83;1.17;;;15.50;99.90;;;;;;5091586;28;20206;-81
2023/07/16 12:48:49;;;;;;;1.60;1.30;;;15.50;99.90;;;;;;5091103;28;20205;-81
2023/07/16 12:51:20;;;;;;;2.00;1.27;;;15.50;99.90;;;;;;5092524;28;20193;-82
2023/07/16 12:53:52;;;;;;;1.50;1.40;;;15.50;99.90;;;;;;5092588;28;20237;-80
2023/07/16 12:56:23;;;;;;;1.53;1.20;;;15.50;99.90;;;;;;5092053;28;20191;-82
2023/07/16 12:58:54;;;;;;;2.60;1.10;;;15.40;99.90;;;;;;5092857;28;20233;-80
2023/07/16 13:01:25;;;;;;;4.60;1.70;;;15.40;99.90;;;;;;5092774;28;20961;-81
2023/07/16 13:03:55;;;;;;;1.70;1.00;;;15.50;99.90;;;;;;5093383;28;20302;-82
2023/07/16 13:06:26;;;;;;;1.43;1.20;;;15.40;99.90;;;;;;5091889;28;20237;-81
2023/07/16 13:08:59;;;;;;;7.43;1.73;;;15.50;99.90;;;;;;5091644;28;20209;-82
2023/07/16 13:11:30;;;;;;;2.37;1.50;;;15.40;99.90;;;;;;5086617;28;20225;-82